Chesterfield, Indiana
Current Conditions -  °F | °C
As of 1:53 PM on Thursday 18 Dec 2014 (Local Time) from KMIE Reporting Station
Overcast Overcast  
Wind Chill: 22°   Ceiling: 1800
Heat Index: 27°   Visibility: 9mi
Dew Point: 20°   Wind: 5mph
Humidity: 75%   Direction: 260°W
Pressure: 30.23"   Gusts: NA
Location:  40.0742°N, 85.6063°W
Report Text: KMIE 181853Z 26004KT 9SM OVC018 M03/M07 A3023 RMK AO2 SLP244 T10281067
Loading
Personal Weather Stations






























Interactive Weather Map New forecast layout! Learn more

10-Day Weather Forecast

Advertisements
Track Severe Weather on mobile